sensor_id;sensor_type;location;lat;lon;timestamp;pressure;altitude;pressure_sealevel;temperature;humidity
77482;BME280;66582;43.004;-75.010;2023-04-08T00:01:13;101553.91;;;3.34;34.76
77482;BME280;66582;43.004;-75.010;2023-04-08T00:03:38;101558.24;;;2.70;34.43
77482;BME280;66582;43.004;-75.010;2023-04-08T00:06:04;101554.60;;;4.45;33.94
77482;BME280;66582;43.004;-75.010;2023-04-08T00:08:28;101559.11;;;4.20;32.83
77482;BME280;66582;43.004;-75.010;2023-04-08T00:10:53;101563.35;;;4.18;33.81
77482;BME280;66582;43.004;-75.010;2023-04-08T00:13:19;101556.29;;;4.50;33.05
77482;BME280;66582;43.004;-75.010;2023-04-08T00:15:44;101564.39;;;4.01;33.53
77482;BME280;66582;43.004;-75.010;2023-04-08T00:18:10;101571.53;;;4.54;32.78
77482;BME280;66582;43.004;-75.010;2023-04-08T00:20:34;101581.39;;;4.60;33.19
77482;BME280;66582;43.004;-75.010;2023-04-08T00:23:00;101590.00;;;4.28;33.67
77482;BME280;66582;43.004;-75.010;2023-04-08T00:25:25;101597.35;;;3.58;33.99
77482;BME280;66582;43.004;-75.010;2023-04-08T00:27:50;101596.09;;;4.98;32.42
77482;BME280;66582;43.004;-75.010;2023-04-08T00:30:15;101600.16;;;4.43;32.38
77482;BME280;66582;43.004;-75.010;2023-04-08T00:32:40;101602.89;;;5.26;32.04
77482;BME280;66582;43.004;-75.010;2023-04-08T00:35:06;101611.00;;;4.48;33.49
77482;BME280;66582;43.004;-75.010;2023-04-08T00:37:31;101607.76;;;5.47;31.27
77482;BME280;66582;43.004;-75.010;2023-04-08T00:39:57;101611.28;;;5.10;32.72
77482;BME280;66582;43.004;-75.010;2023-04-08T00:42:21;101613.79;;;3.90;34.04
77482;BME280;66582;43.004;-75.010;2023-04-08T00:44:46;101631.27;;;3.18;35.29
77482;BME280;66582;43.004;-75.010;2023-04-08T00:47:13;101630.39;;;4.38;34.14
77482;BME280;66582;43.004;-75.010;2023-04-08T00:49:37;101636.44;;;4.22;33.89
77482;BME280;66582;43.004;-75.010;2023-04-08T00:52:02;101643.29;;;4.42;34.27
77482;BME280;66582;43.004;-75.010;2023-04-08T00:54:27;101658.00;;;3.02;36.29
77482;BME280;66582;43.004;-75.010;2023-04-08T00:56:52;101658.02;;;1.56;39.56
77482;BME280;66582;43.004;-75.010;2023-04-08T00:59:18;101661.55;;;1.84;39.12
77482;BME280;66582;43.004;-75.010;2023-04-08T01:01:46;101661.82;;;2.90;39.88
77482;BME280;66582;43.004;-75.010;2023-04-08T01:04:15;101655.95;;;3.66;36.44
77482;BME280;66582;43.004;-75.010;2023-04-08T01:06:39;101659.43;;;3.93;37.18
77482;BME280;66582;43.004;-75.010;2023-04-08T01:08:59;101673.19;;;3.12;39.93
77482;BME280;66582;43.004;-75.010;2023-04-08T01:11:24;101673.57;;;1.94;40.89
77482;BME280;66582;43.004;-75.010;2023-04-08T01:13:49;101673.55;;;1.84;41.81
77482;BME280;66582;43.004;-75.010;2023-04-08T01:16:15;101678.00;;;1.77;41.31
77482;BME280;66582;43.004;-75.010;2023-04-08T01:18:41;101688.95;;;0.69;45.78
77482;BME280;66582;43.004;-75.010;2023-04-08T01:21:04;101688.35;;;1.21;44.90
77482;BME280;66582;43.004;-75.010;2023-04-08T01:23:36;101690.78;;;1.01;46.26
77482;BME280;66582;43.004;-75.010;2023-04-08T01:25:56;101694.14;;;0.68;46.48
77482;BME280;66582;43.004;-75.010;2023-04-08T01:28:22;101699.28;;;0.91;46.58
77482;BME280;66582;43.004;-75.010;2023-04-08T01:30:46;101693.76;;;1.95;45.47
77482;BME280;66582;43.004;-75.010;2023-04-08T01:33:11;101698.18;;;1.60;44.26
77482;BME280;66582;43.004;-75.010;2023-04-08T01:35:35;101701.31;;;0.98;45.48
77482;BME280;66582;43.004;-75.010;2023-04-08T01:38:01;101708.80;;;0.40;45.40
77482;BME280;66582;43.004;-75.010;2023-04-08T01:40:26;101716.51;;;0.11;47.95
77482;BME280;66582;43.004;-75.010;2023-04-08T01:42:55;101710.53;;;1.29;47.02
77482;BME280;66582;43.004;-75.010;2023-04-08T01:45:17;101708.60;;;2.17;44.28
77482;BME280;66582;43.004;-75.010;2023-04-08T01:47:44;101716.56;;;1.23;46.22
77482;BME280;66582;43.004;-75.010;2023-04-08T01:50:08;101714.87;;;1.63;45.03
77482;BME280;66582;43.004;-75.010;2023-04-08T01:52:34;101713.10;;;1.92;44.37
77482;BME280;66582;43.004;-75.010;2023-04-08T01:54:57;101716.71;;;0.91;46.19
77482;BME280;66582;43.004;-75.010;2023-04-08T01:57:26;101717.74;;;0.74;48.35
77482;BME280;66582;43.004;-75.010;2023-04-08T01:59:49;101711.81;;;1.08;46.27
77482;BME280;66582;43.004;-75.010;2023-04-08T02:02:13;101717.85;;;1.20;48.95
77482;BME280;66582;43.004;-75.010;2023-04-08T02:04:38;101718.32;;;1.33;47.16
77482;BME280;66582;43.004;-75.010;2023-04-08T02:07:04;101720.90;;;1.72;44.66
77482;BME280;66582;43.004;-75.010;2023-04-08T02:09:29;101713.17;;;2.38;45.22
77482;BME280;66582;43.004;-75.010;2023-04-08T02:11:54;101723.66;;;0.27;49.75
77482;BME280;66582;43.004;-75.010;2023-04-08T02:14:19;101727.00;;;0.38;50.51
77482;BME280;66582;43.004;-75.010;2023-04-08T02:16:51;101719.10;;;1.25;49.84
77482;BME280;66582;43.004;-75.010;2023-04-08T02:19:13;101722.97;;;0.40;51.59
77482;BME280;66582;43.004;-75.010;2023-04-08T02:21:42;101717.76;;;1.49;48.90
77482;BME280;66582;43.004;-75.010;2023-04-08T02:24:01;101717.31;;;0.59;49.59
77482;BME280;66582;43.004;-75.010;2023-04-08T02:26:25;101724.21;;;-0.20;51.51
77482;BME280;66582;43.004;-75.010;2023-04-08T02:28:50;101731.45;;;-0.19;53.50
77482;BME280;66582;43.004;-75.010;2023-04-08T02:31:17;101720.39;;;1.46;49.31
77482;BME280;66582;43.004;-75.010;2023-04-08T02:33:40;101715.37;;;1.95;47.56
77482;BME280;66582;43.004;-75.010;2023-04-08T02:36:06;101736.05;;;0.19;51.58
77482;BME280;66582;43.004;-75.010;2023-04-08T02:38:31;101741.87;;;-0.76;54.33
77482;BME280;66582;43.004;-75.010;2023-04-08T02:40:56;101736.07;;;1.13;49.61
77482;BME280;66582;43.004;-75.010;2023-04-08T02:43:20;101736.06;;;0.81;49.54
77482;BME280;66582;43.004;-75.010;2023-04-08T02:45:46;101732.23;;;0.99;50.58
77482;BME280;66582;43.004;-75.010;2023-04-08T02:48:11;101727.12;;;0.74;49.90
77482;BME280;66582;43.004;-75.010;2023-04-08T02:50:36;101723.37;;;0.94;49.24
77482;BME280;66582;43.004;-75.010;2023-04-08T02:53:01;101739.21;;;-0.55;54.08
77482;BME280;66582;43.004;-75.010;2023-04-08T02:55:27;101739.63;;;-0.61;53.70
77482;BME280;66582;43.004;-75.010;2023-04-08T02:57:51;101748.83;;;-1.45;56.18
77482;BME280;66582;43.004;-75.010;2023-04-08T03:00:17;101748.22;;;-0.78;55.34
77482;BME280;66582;43.004;-75.010;2023-04-08T03:02:43;101752.26;;;0.36;52.93
77482;BME280;66582;43.004;-75.010;2023-04-08T03:05:08;101744.13;;;0.85;50.44
77482;BME280;66582;43.004;-75.010;2023-04-08T03:07:32;101745.76;;;-0.01;52.21
77482;BME280;66582;43.004;-75.010;2023-04-08T03:09:57;101747.50;;;0.17;52.64
77482;BME280;66582;43.004;-75.010;2023-04-08T03:12:22;101745.25;;;1.15;50.43
77482;BME280;66582;43.004;-75.010;2023-04-08T03:14:49;101753.22;;;-0.40;53.63
77482;BME280;66582;43.004;-75.010;2023-04-08T03:17:13;101754.11;;;-0.53;53.71
77482;BME280;66582;43.004;-75.010;2023-04-08T03:19:39;101740.58;;;0.96;50.56
77482;BME280;66582;43.004;-75.010;2023-04-08T03:22:03;101750.58;;;-1.09;55.61
77482;BME280;66582;43.004;-75.010;2023-04-08T03:24:29;101747.77;;;-0.02;53.45
77482;BME280;66582;43.004;-75.010;2023-04-08T03:26:54;101741.95;;;1.35;49.15
77482;BME280;66582;43.004;-75.010;2023-04-08T03:29:19;101742.04;;;0.58;49.92
77482;BME280;66582;43.004;-75.010;2023-04-08T03:31:44;101747.47;;;-1.61;56.32
77482;BME280;66582;43.004;-75.010;2023-04-08T03:34:09;101752.34;;;-0.00;53.17
77482;BME280;66582;43.004;-75.010;2023-04-08T03:36:34;101756.42;;;-0.95;51.85
77482;BME280;66582;43.004;-75.010;2023-04-08T03:39:00;101747.10;;;0.65;50.40
77482;BME280;66582;43.004;-75.010;2023-04-08T03:41:25;101755.20;;;-1.32;57.10
77482;BME280;66582;43.004;-75.010;2023-04-08T03:43:50;101746.24;;;-0.37;55.66
77482;BME280;66582;43.004;-75.010;2023-04-08T03:46:15;101746.42;;;-0.15;55.70
77482;BME280;66582;43.004;-75.010;2023-04-08T03:48:40;101745.59;;;-0.61;55.06
77482;BME280;66582;43.004;-75.010;2023-04-08T03:51:06;101741.93;;;-0.13;53.53
77482;BME280;66582;43.004;-75.010;2023-04-08T03:53:31;101742.21;;;-0.60;54.95
77482;BME280;66582;43.004;-75.010;2023-04-08T03:55:58;101738.84;;;-0.13;52.23
77482;BME280;66582;43.004;-75.010;2023-04-08T03:58:21;101742.02;;;-0.33;55.52
77482;BME280;66582;43.004;-75.010;2023-04-08T04:00:46;101745.22;;;-1.00;56.76
77482;BME280;66582;43.004;-75.010;2023-04-08T04:03:11;101746.94;;;0.11;53.45
77482;BME280;66582;43.004;-75.010;2023-04-08T04:05:37;101749.90;;;-0.32;54.13
77482;BME280;66582;43.004;-75.010;2023-04-08T04:08:02;101750.73;;;0.52;51.03
77482;BME280;66582;43.004;-75.010;2023-04-08T04:10:27;101752.03;;;-0.34;53.64
77482;BME280;66582;43.004;-75.010;2023-04-08T04:12:53;101750.84;;;-1.22;54.99
77482;BME280;66582;43.004;-75.010;2023-04-08T04:15:17;101752.86;;;-1.13;55.37
77482;BME280;66582;43.004;-75.010;2023-04-08T04:17:43;101747.51;;;-0.85;57.35
77482;BME280;66582;43.004;-75.010;2023-04-08T04:20:10;101740.95;;;0.08;52.15
77482;BME280;66582;43.004;-75.010;2023-04-08T04:22:33;101738.08;;;-0.46;54.66
77482;BME280;66582;43.004;-75.010;2023-04-08T04:24:59;101726.23;;;1.39;49.70
77482;BME280;66582;43.004;-75.010;2023-04-08T04:27:24;101725.42;;;0.74;50.03
77482;BME280;66582;43.004;-75.010;2023-04-08T04:29:49;101737.07;;;-0.33;52.05
77482;BME280;66582;43.004;-75.010;2023-04-08T04:32:14;101742.22;;;-1.76;56.21
77482;BME280;66582;43.004;-75.010;2023-04-08T04:34:39;101740.46;;;-0.15;54.53
77482;BME280;66582;43.004;-75.010;2023-04-08T04:37:04;101743.23;;;-0.49;55.36
77482;BME280;66582;43.004;-75.010;2023-04-08T04:39:29;101743.09;;;0.14;53.21
77482;BME280;66582;43.004;-75.010;2023-04-08T04:41:55;101747.71;;;-0.04;54.21
77482;BME280;66582;43.004;-75.010;2023-04-08T04:44:20;101758.16;;;-1.18;58.38
77482;BME280;66582;43.004;-75.010;2023-04-08T04:46:45;101762.80;;;-1.70;59.46
77482;BME280;66582;43.004;-75.010;2023-04-08T04:49:11;101779.12;;;-3.15;66.78
77482;BME280;66582;43.004;-75.010;2023-04-08T04:51:35;101771.51;;;-1.79;63.84
77482;BME280;66582;43.004;-75.010;2023-04-08T04:54:01;101768.75;;;-0.25;59.01
77482;BME280;66582;43.004;-75.010;2023-04-08T04:56:26;101774.97;;;-2.04;62.91
77482;BME280;66582;43.004;-75.010;2023-04-08T04:58:51;101774.50;;;-1.66;62.32
77482;BME280;66582;43.004;-75.010;2023-04-08T05:01:17;101776.40;;;-1.48;60.42
77482;BME280;66582;43.004;-75.010;2023-04-08T05:03:42;101780.82;;;-1.79;62.61
77482;BME280;66582;43.004;-75.010;2023-04-08T05:06:07;101780.57;;;-2.17;64.89
77482;BME280;66582;43.004;-75.010;2023-04-08T05:08:32;101775.58;;;-1.61;62.61
77482;BME280;66582;43.004;-75.010;2023-04-08T05:10:57;101774.90;;;-1.26;60.39
77482;BME280;66582;43.004;-75.010;2023-04-08T05:13:22;101774.00;;;0.06;56.48
77482;BME280;66582;43.004;-75.010;2023-04-08T05:15:47;101775.98;;;-0.30;55.79
77482;BME280;66582;43.004;-75.010;2023-04-08T05:18:13;101775.42;;;-0.41;58.28
77482;BME280;66582;43.004;-75.010;2023-04-08T05:20:38;101775.25;;;-0.09;54.51
77482;BME280;66582;43.004;-75.010;2023-04-08T05:23:03;101770.05;;;0.79;53.26
77482;BME280;66582;43.004;-75.010;2023-04-08T05:25:30;101767.72;;;1.91;48.70
77482;BME280;66582;43.004;-75.010;2023-04-08T05:27:54;101761.06;;;3.01;46.73
77482;BME280;66582;43.004;-75.010;2023-04-08T05:30:19;101759.16;;;3.19;46.50
77482;BME280;66582;43.004;-75.010;2023-04-08T05:32:45;101772.36;;;1.26;49.60
77482;BME280;66582;43.004;-75.010;2023-04-08T05:35:10;101777.01;;;0.25;51.95
77482;BME280;66582;43.004;-75.010;2023-04-08T05:37:35;101786.45;;;-0.32;55.75
77482;BME280;66582;43.004;-75.010;2023-04-08T05:40:00;101782.72;;;0.71;51.99
77482;BME280;66582;43.004;-75.010;2023-04-08T05:42:26;101776.16;;;2.43;47.17
77482;BME280;66582;43.004;-75.010;2023-04-08T05:44:56;101769.18;;;3.74;45.09
77482;BME280;66582;43.004;-75.010;2023-04-08T05:47:16;101766.21;;;4.06;43.38
77482;BME280;66582;43.004;-75.010;2023-04-08T05:49:41;101763.28;;;3.64;43.92
77482;BME280;66582;43.004;-75.010;2023-04-08T05:52:06;101768.63;;;4.07;43.75
77482;BME280;66582;43.004;-75.010;2023-04-08T05:54:32;101768.34;;;4.49;42.79
77482;BME280;66582;43.004;-75.010;2023-04-08T05:56:57;101765.13;;;3.96;42.25
77482;BME280;66582;43.004;-75.010;2023-04-08T05:59:22;101753.21;;;5.09;40.48
77482;BME280;66582;43.004;-75.010;2023-04-08T06:01:47;101754.10;;;5.11;39.69
77482;BME280;66582;43.004;-75.010;2023-04-08T06:04:12;101752.19;;;5.53;38.93
77482;BME280;66582;43.004;-75.010;2023-04-08T06:06:38;101758.16;;;4.29;40.46
77482;BME280;66582;43.004;-75.010;2023-04-08T06:09:03;101754.35;;;4.00;40.80
77482;BME280;66582;43.004;-75.010;2023-04-08T06:11:28;101761.33;;;3.30;42.64
77482;BME280;66582;43.004;-75.010;2023-04-08T06:13:53;101766.00;;;3.31;43.15
77482;BME280;66582;43.004;-75.010;2023-04-08T06:16:18;101769.14;;;2.90;44.42
77482;BME280;66582;43.004;-75.010;2023-04-08T06:18:44;101765.16;;;3.12;44.32
77482;BME280;66582;43.004;-75.010;2023-04-08T06:21:09;101770.63;;;1.51;48.66
77482;BME280;66582;43.004;-75.010;2023-04-08T06:23:34;101761.03;;;3.19;45.66
77482;BME280;66582;43.004;-75.010;2023-04-08T06:25:59;101760.74;;;2.56;45.93
77482;BME280;66582;43.004;-75.010;2023-04-08T06:28:25;101763.86;;;2.23;46.74
77482;BME280;66582;43.004;-75.010;2023-04-08T06:30:50;101774.59;;;1.54;47.96
77482;BME280;66582;43.004;-75.010;2023-04-08T06:33:14;101774.55;;;2.31;46.25
77482;BME280;66582;43.004;-75.010;2023-04-08T06:35:42;101772.92;;;3.26;44.23
77482;BME280;66582;43.004;-75.010;2023-04-08T06:38:05;101781.85;;;2.60;45.48
77482;BME280;66582;43.004;-75.010;2023-04-08T06:40:30;101776.90;;;2.68;44.84
77482;BME280;66582;43.004;-75.010;2023-04-08T06:42:55;101778.76;;;2.78;45.16
77482;BME280;66582;43.004;-75.010;2023-04-08T06:45:21;101785.49;;;1.19;48.30
77482;BME280;66582;43.004;-75.010;2023-04-08T06:47:46;101794.32;;;0.24;51.75
77482;BME280;66582;43.004;-75.010;2023-04-08T06:50:11;101794.74;;;-0.59;54.70
77482;BME280;66582;43.004;-75.010;2023-04-08T06:52:36;101795.30;;;0.13;54.88
77482;BME280;66582;43.004;-75.010;2023-04-08T06:55:01;101797.47;;;-0.77;56.15
77482;BME280;66582;43.004;-75.010;2023-04-08T06:57:27;101804.02;;;-1.58;57.23
77482;BME280;66582;43.004;-75.010;2023-04-08T06:59:52;101806.46;;;-1.15;59.94
77482;BME280;66582;43.004;-75.010;2023-04-08T07:02:17;101809.72;;;-1.78;59.04
77482;BME280;66582;43.004;-75.010;2023-04-08T07:04:42;101813.76;;;-1.44;59.91
77482;BME280;66582;43.004;-75.010;2023-04-08T07:07:08;101817.06;;;-1.68;62.30
77482;BME280;66582;43.004;-75.010;2023-04-08T07:09:33;101815.46;;;-1.53;60.17
77482;BME280;66582;43.004;-75.010;2023-04-08T07:11:58;101817.60;;;-2.74;66.72
77482;BME280;66582;43.004;-75.010;2023-04-08T07:14:23;101817.57;;;-2.86;65.34
77482;BME280;66582;43.004;-75.010;2023-04-08T07:16:49;101817.99;;;-2.76;66.76
77482;BME280;66582;43.004;-75.010;2023-04-08T07:19:15;101815.65;;;-2.68;68.93
77482;BME280;66582;43.004;-75.010;2023-04-08T07:21:39;101814.01;;;-2.59;64.99
77482;BME280;66582;43.004;-75.010;2023-04-08T07:24:05;101809.03;;;-1.11;63.10
77482;BME280;66582;43.004;-75.010;2023-04-08T07:26:29;101802.76;;;-0.39;59.48
77482;BME280;66582;43.004;-75.010;2023-04-08T07:28:55;101806.35;;;-0.37;58.02
77482;BME280;66582;43.004;-75.010;2023-04-08T07:31:20;101815.87;;;-2.07;61.78
77482;BME280;66582;43.004;-75.010;2023-04-08T07:33:45;101813.57;;;-1.07;59.59
77482;BME280;66582;43.004;-75.010;2023-04-08T07:36:12;101811.28;;;-0.64;58.00
77482;BME280;66582;43.004;-75.010;2023-04-08T07:38:35;101816.54;;;-1.82;61.78
77482;BME280;66582;43.004;-75.010;2023-04-08T07:41:01;101815.65;;;-0.78;57.57
77482;BME280;66582;43.004;-75.010;2023-04-08T07:43:26;101818.88;;;-0.92;58.35
77482;BME280;66582;43.004;-75.010;2023-04-08T07:45:51;101819.61;;;0.17;54.93
77482;BME280;66582;43.004;-75.010;2023-04-08T07:48:16;101828.32;;;-2.25;58.57
77482;BME280;66582;43.004;-75.010;2023-04-08T07:50:41;101837.09;;;-3.30;68.54
77482;BME280;66582;43.004;-75.010;2023-04-08T07:53:07;101834.83;;;-2.67;65.91
77482;BME280;66582;43.004;-75.010;2023-04-08T07:55:33;101842.59;;;-4.11;69.36
77482;BME280;66582;43.004;-75.010;2023-04-08T07:57:57;101840.51;;;-3.23;69.07
77482;BME280;66582;43.004;-75.010;2023-04-08T08:00:23;101841.44;;;-2.95;68.65
77482;BME280;66582;43.004;-75.010;2023-04-08T08:02:48;101845.79;;;-3.45;68.41
77482;BME280;66582;43.004;-75.010;2023-04-08T08:05:13;101849.25;;;-3.94;73.02
77482;BME280;66582;43.004;-75.010;2023-04-08T08:07:38;101847.05;;;-2.94;70.55
77482;BME280;66582;43.004;-75.010;2023-04-08T08:10:05;101850.10;;;-4.52;74.82
77482;BME280;66582;43.004;-75.010;2023-04-08T08:12:29;101850.38;;;-4.60;76.20
77482;BME280;66582;43.004;-75.010;2023-04-08T08:14:55;101851.43;;;-3.51;72.74
77482;BME280;66582;43.004;-75.010;2023-04-08T08:17:20;101847.11;;;-2.45;69.70
77482;BME280;66582;43.004;-75.010;2023-04-08T08:19:45;101851.29;;;-2.72;67.20
77482;BME280;66582;43.004;-75.010;2023-04-08T08:22:11;101843.57;;;-1.19;63.00
77482;BME280;66582;43.004;-75.010;2023-04-08T08:24:35;101845.83;;;-2.20;61.66
77482;BME280;66582;43.004;-75.010;2023-04-08T08:27:01;101844.56;;;-0.90;58.69
77482;BME280;66582;43.004;-75.010;2023-04-08T08:29:26;101851.66;;;-1.15;57.68
77482;BME280;66582;43.004;-75.010;2023-04-08T08:31:52;101852.04;;;-0.59;57.92
77482;BME280;66582;43.004;-75.010;2023-04-08T08:34:18;101869.97;;;-3.68;65.13
77482;BME280;66582;43.004;-75.010;2023-04-08T08:36:42;101867.08;;;-2.24;62.51
77482;BME280;66582;43.004;-75.010;2023-04-08T08:39:07;101873.53;;;-2.85;64.33
77482;BME280;66582;43.004;-75.010;2023-04-08T08:41:33;101868.31;;;-1.32;59.64
77482;BME280;66582;43.004;-75.010;2023-04-08T08:44:00;101877.28;;;-2.25;62.58
77482;BME280;66582;43.004;-75.010;2023-04-08T08:46:23;101885.42;;;-3.15;67.50
77482;BME280;66582;43.004;-75.010;2023-04-08T08:48:48;101889.99;;;-4.05;71.90
77482;BME280;66582;43.004;-75.010;2023-04-08T08:51:13;101881.73;;;-2.40;66.32
77482;BME280;66582;43.004;-75.010;2023-04-08T08:53:39;101893.12;;;-3.38;68.78
77482;BME280;66582;43.004;-75.010;2023-04-08T08:56:07;101894.65;;;-2.43;63.14
77482;BME280;66582;43.004;-75.010;2023-04-08T08:58:29;101894.30;;;-1.73;62.43
77482;BME280;66582;43.004;-75.010;2023-04-08T09:00:54;101899.33;;;-3.11;64.10
77482;BME280;66582;43.004;-75.010;2023-04-08T09:03:20;101904.96;;;-3.83;68.47
77482;BME280;66582;43.004;-75.010;2023-04-08T09:05:50;101895.65;;;-2.71;66.80
77482;BME280;66582;43.004;-75.010;2023-04-08T09:08:25;101894.12;;;-1.62;61.82
77482;BME280;66582;43.004;-75.010;2023-04-08T09:10:35;101893.68;;;-0.65;57.33
77482;BME280;66582;43.004;-75.010;2023-04-08T09:13:00;101902.88;;;-3.35;63.85
77482;BME280;66582;43.004;-75.010;2023-04-08T09:15:26;101903.06;;;-2.90;66.52
77482;BME280;66582;43.004;-75.010;2023-04-08T09:17:51;101892.53;;;-0.93;59.63
77482;BME280;66582;43.004;-75.010;2023-04-08T09:20:17;101890.94;;;-0.31;56.21
77482;BME280;66582;43.004;-75.010;2023-04-08T09:22:54;101898.34;;;-1.97;61.01
77482;BME280;66582;43.004;-75.010;2023-04-08T09:27:34;101893.51;;;-0.82;56.98
77482;BME280;66582;43.004;-75.010;2023-04-08T09:30:13;101889.59;;;0.88;52.45
77482;BME280;66582;43.004;-75.010;2023-04-08T09:32:23;101891.27;;;1.35;50.45
77482;BME280;66582;43.004;-75.010;2023-04-08T09:34:48;101900.25;;;-0.81;54.86
77482;BME280;66582;43.004;-75.010;2023-04-08T09:37:13;101902.83;;;-0.98;56.10
77482;BME280;66582;43.004;-75.010;2023-04-08T09:39:38;101904.90;;;-1.55;56.53
77482;BME280;66582;43.004;-75.010;2023-04-08T09:42:06;101903.20;;;-1.25;58.30
77482;BME280;66582;43.004;-75.010;2023-04-08T09:44:29;101905.03;;;-2.33;59.70
77482;BME280;66582;43.004;-75.010;2023-04-08T09:47:03;101904.35;;;-1.69;59.48
77482;BME280;66582;43.004;-75.010;2023-04-08T09:49:25;101910.90;;;-2.13;60.85
77482;BME280;66582;43.004;-75.010;2023-04-08T09:51:47;101904.17;;;0.34;54.01
77482;BME280;66582;43.004;-75.010;2023-04-08T09:54:15;101904.94;;;1.52;50.43
77482;BME280;66582;43.004;-75.010;2023-04-08T09:56:40;101901.14;;;1.46;49.12
77482;BME280;66582;43.004;-75.010;2023-04-08T09:59:06;101906.38;;;0.96;49.58
77482;BME280;66582;43.004;-75.010;2023-04-08T10:01:31;101900.44;;;2.25;46.64
77482;BME280;66582;43.004;-75.010;2023-04-08T10:03:53;101910.11;;;-0.23;51.52
77482;BME280;66582;43.004;-75.010;2023-04-08T10:06:16;101905.54;;;1.71;48.22
77482;BME280;66582;43.004;-75.010;2023-04-08T10:08:42;101912.17;;;1.42;47.35
77482;BME280;66582;43.004;-75.010;2023-04-08T10:11:07;101921.29;;;-0.99;53.21
77482;BME280;66582;43.004;-75.010;2023-04-08T10:13:34;101920.12;;;0.64;50.77
77482;BME280;66582;43.004;-75.010;2023-04-08T10:18:30;101924.26;;;1.21;47.11
77482;BME280;66582;43.004;-75.010;2023-04-08T10:20:48;101929.07;;;1.60;47.73
77482;BME280;66582;43.004;-75.010;2023-04-08T10:23:14;101942.83;;;1.38;47.27
77482;BME280;66582;43.004;-75.010;2023-04-08T10:25:39;101952.56;;;0.30;49.83
77482;BME280;66582;43.004;-75.010;2023-04-08T10:30:39;101959.33;;;0.15;51.91
77482;BME280;66582;43.004;-75.010;2023-04-08T10:32:54;101958.72;;;0.46;49.59
77482;BME280;66582;43.004;-75.010;2023-04-08T10:35:28;101959.99;;;1.13;48.80
77482;BME280;66582;43.004;-75.010;2023-04-08T10:37:44;101961.36;;;-1.01;52.16
77482;BME280;66582;43.004;-75.010;2023-04-08T10:40:18;101968.73;;;-0.86;53.42
77482;BME280;66582;43.004;-75.010;2023-04-08T10:42:34;101980.28;;;-3.13;60.76
77482;BME280;66582;43.004;-75.010;2023-04-08T10:45:01;101982.22;;;-2.97;63.39
77482;BME280;66582;43.004;-75.010;2023-04-08T10:47:26;102001.86;;;-5.88;73.81
77482;BME280;66582;43.004;-75.010;2023-04-08T10:49:50;101999.67;;;-4.88;76.03
77482;BME280;66582;43.004;-75.010;2023-04-08T10:52:15;102002.61;;;-4.52;74.48
77482;BME280;66582;43.004;-75.010;2023-04-08T10:54:45;102001.59;;;-4.91;74.48
77482;BME280;66582;43.004;-75.010;2023-04-08T10:57:11;102000.06;;;-4.11;73.93
77482;BME280;66582;43.004;-75.010;2023-04-08T10:59:31;101995.01;;;-2.78;66.90
77482;BME280;66582;43.004;-75.010;2023-04-08T11:01:57;101993.18;;;-1.69;62.00
77482;BME280;66582;43.004;-75.010;2023-04-08T11:04:21;101996.61;;;-0.88;59.06
77482;BME280;66582;43.004;-75.010;2023-04-08T11:06:47;102009.12;;;-3.21;62.12
77482;BME280;66582;43.004;-75.010;2023-04-08T11:09:13;102013.02;;;-3.48;65.92
77482;BME280;66582;43.004;-75.010;2023-04-08T11:11:37;102006.87;;;-1.42;60.39
77482;BME280;66582;43.004;-75.010;2023-04-08T11:14:03;102008.89;;;-1.81;62.65
77482;BME280;66582;43.004;-75.010;2023-04-08T11:16:28;102008.79;;;-1.59;59.88
77482;BME280;66582;43.004;-75.010;2023-04-08T11:18:53;102020.79;;;-2.42;63.74
77482;BME280;66582;43.004;-75.010;2023-04-08T11:21:18;102026.48;;;-2.35;62.72
77482;BME280;66582;43.004;-75.010;2023-04-08T11:23:43;102029.01;;;-3.49;68.34
77482;BME280;66582;43.004;-75.010;2023-04-08T11:26:09;102038.23;;;-4.72;75.29
77482;BME280;66582;43.004;-75.010;2023-04-08T11:28:36;102040.42;;;-4.19;75.20
77482;BME280;66582;43.004;-75.010;2023-04-08T11:31:00;102038.98;;;-2.97;73.18
77482;BME280;66582;43.004;-75.010;2023-04-08T11:33:25;102038.61;;;-1.89;65.14
77482;BME280;66582;43.004;-75.010;2023-04-08T11:35:51;102046.48;;;-2.54;66.13
77482;BME280;66582;43.004;-75.010;2023-04-08T11:38:15;102043.00;;;-1.69;64.07
77482;BME280;66582;43.004;-75.010;2023-04-08T11:43:10;102039.39;;;0.27;55.23
77482;BME280;66582;43.004;-75.010;2023-04-08T11:45:37;102054.64;;;-1.34;60.42
77482;BME280;66582;43.004;-75.010;2023-04-08T11:47:56;102045.51;;;0.61;55.58
77482;BME280;66582;43.004;-75.010;2023-04-08T11:50:22;102052.13;;;-0.41;56.14
77482;BME280;66582;43.004;-75.010;2023-04-08T11:52:48;102062.85;;;-1.96;58.60
77482;BME280;66582;43.004;-75.010;2023-04-08T11:55:22;102057.02;;;-0.64;58.98
77482;BME280;66582;43.004;-75.010;2023-04-08T11:57:37;102064.05;;;-0.23;57.01
77482;BME280;66582;43.004;-75.010;2023-04-08T12:00:03;102073.64;;;-1.58;60.95
77482;BME280;66582;43.004;-75.010;2023-04-08T12:02:28;102070.39;;;0.67;57.23
77482;BME280;66582;43.004;-75.010;2023-04-08T12:04:54;102062.52;;;3.50;50.89
77482;BME280;66582;43.004;-75.010;2023-04-08T12:07:18;102071.17;;;0.69;53.06
77482;BME280;66582;43.004;-75.010;2023-04-08T12:09:44;102077.95;;;0.17;55.34
77482;BME280;66582;43.004;-75.010;2023-04-08T12:12:09;102071.86;;;2.62;51.45
77482;BME280;66582;43.004;-75.010;2023-04-08T12:14:34;102070.91;;;5.60;46.25
77482;BME280;66582;43.004;-75.010;2023-04-08T12:16:59;102066.87;;;6.20;43.43
77482;BME280;66582;43.004;-75.010;2023-04-08T12:19:25;102082.99;;;3.13;43.93
77482;BME280;66582;43.004;-75.010;2023-04-08T12:21:50;102076.29;;;5.35;43.53
77482;BME280;66582;43.004;-75.010;2023-04-08T12:24:15;102070.69;;;7.00;40.42
77482;BME280;66582;43.004;-75.010;2023-04-08T12:26:40;102069.54;;;7.12;39.57
77482;BME280;66582;43.004;-75.010;2023-04-08T12:29:05;102068.16;;;8.74;37.31
77482;BME280;66582;43.004;-75.010;2023-04-08T12:31:31;102067.42;;;8.20;37.63
77482;BME280;66582;43.004;-75.010;2023-04-08T12:33:56;102067.98;;;8.55;36.09